Time;durP1;ratioP1;P1;durP2;ratioP2;P2;SDS_P1;SDS_P2;PMS_P1;PMS_P2;Temp;Humidity;BMP_temperature;BMP_pressure;BME280_temperature;BME280_humidity;BME280_pressure;Samples;Min_cycle;Max_cycle;Signal;HPM_P1;HPM_P2
2022/11/17 00:01:54;;;;;;;4.82;0.82;;;20.20;60.70;;;;;;5089239;28;20044;-56
2022/11/17 00:04:21;;;;;;;7.47;0.85;;;20.10;60.60;;;;;;5089407;28;20040;-54
2022/11/17 00:06:48;;;;;;;4.30;0.45;;;20.10;60.60;;;;;;5088988;28;20063;-54
2022/11/17 00:09:16;;;;;;;11.55;0.80;;;20.10;60.60;;;;;;5089283;28;20504;-54
2022/11/17 00:14:33;;;;;;;11.15;0.90;;;20.10;60.50;;;;;;5019295;28;20537;-56
2022/11/17 00:17:02;;;;;;;4.45;0.73;;;20.10;60.50;;;;;;5009541;28;20168;-55
2022/11/17 00:22:14;;;;;;;2.67;0.70;;;20.10;60.40;;;;;;5005685;28;20111;-56
2022/11/17 00:24:41;;;;;;;7.10;1.02;;;20.10;60.40;;;;;;5006417;28;20205;-56
2022/11/17 00:27:08;;;;;;;9.50;1.23;;;20.10;60.40;;;;;;5006622;28;20141;-55
2022/11/17 00:29:35;;;;;;;6.88;0.98;;;20.20;60.40;;;;;;5006367;28;20053;-58
2022/11/17 00:34:48;;;;;;;7.43;0.88;;;20.10;60.20;;;;;;5006331;28;20053;-57
2022/11/17 00:37:15;;;;;;;6.85;1.13;;;20.10;60.20;;;;;;5006254;28;20046;-56
2022/11/17 00:39:42;;;;;;;8.40;0.82;;;20.10;60.20;;;;;;5006232;28;20081;-55
2022/11/17 00:42:09;;;;;;;9.07;1.05;;;20.10;60.10;;;;;;5008747;28;20421;-54
2022/11/17 00:44:36;;;;;;;4.18;0.60;;;20.10;60.10;;;;;;5005954;28;20053;-53
2022/11/17 00:47:05;;;;;;;8.73;1.20;;;20.10;60.00;;;;;;5005974;28;20416;-57
2022/11/17 00:49:32;;;;;;;4.57;0.82;;;20.10;60.00;;;;;;5007274;28;20085;-57
2022/11/17 00:51:59;;;;;;;5.50;1.98;;;20.10;59.60;;;;;;5064278;28;20614;-57
2022/11/17 00:54:26;;;;;;;4.40;0.40;;;20.10;59.90;;;;;;5088607;28;20128;-56
2022/11/17 00:56:53;;;;;;;4.05;0.73;;;20.10;59.80;;;;;;5088567;28;20040;-51
2022/11/17 00:59:20;;;;;;;8.27;1.15;;;20.20;59.90;;;;;;5088337;28;20051;-57
2022/11/17 01:01:47;;;;;;;9.57;1.30;;;20.20;59.80;;;;;;5088299;28;20078;-57
2022/11/17 01:04:16;;;;;;;4.85;0.63;;;20.20;59.80;;;;;;5088466;28;20563;-54
2022/11/17 01:06:44;;;;;;;7.40;2.08;;;20.20;59.80;;;;;;5087921;28;20412;-55
2022/11/17 01:09:13;;;;;;;10.10;1.83;;;20.20;59.70;;;;;;5088378;28;20520;-56
2022/11/17 01:11:41;;;;;;;7.78;1.08;;;20.10;59.50;;;;;;5088132;28;20047;-57
2022/11/17 01:14:11;;;;;;;6.47;1.40;;;20.20;59.60;;;;;;5088157;28;20523;-55
2022/11/17 01:16:38;;;;;;;5.40;0.47;;;20.20;59.50;;;;;;5087825;28;20040;-56
2022/11/17 01:19:06;;;;;;;4.97;0.40;;;20.20;59.50;;;;;;5087963;28;20040;-55
2022/11/17 01:21:34;;;;;;;7.78;0.60;;;20.10;59.40;;;;;;5088073;28;20101;-56
2022/11/17 01:24:02;;;;;;;7.07;1.85;;;20.20;59.40;;;;;;5088272;28;20032;-55
2022/11/17 01:26:30;;;;;;;10.85;1.35;;;20.10;59.30;;;;;;5089013;28;20048;-54
2022/11/17 01:28:58;;;;;;;6.35;0.95;;;20.10;59.30;;;;;;5088681;28;20044;-55
2022/11/17 01:31:28;;;;;;;8.73;1.90;;;20.20;59.30;;;;;;5088901;28;20126;-54
2022/11/17 01:33:55;;;;;;;5.82;0.85;;;20.10;59.10;;;;;;5088422;28;20525;-54
2022/11/17 01:36:24;;;;;;;6.05;0.98;;;20.10;59.10;;;;;;5070785;28;20401;-56
2022/11/17 01:38:52;;;;;;;7.15;0.40;;;20.10;59.10;;;;;;5075551;28;20049;-53
2022/11/17 01:41:22;;;;;;;4.32;0.50;;;20.20;59.10;;;;;;5067873;28;20040;-56
2022/11/17 01:43:51;;;;;;;5.20;0.30;;;20.10;59.00;;;;;;5098205;28;20051;-55
2022/11/17 01:46:27;;;;;;;6.57;0.82;;;20.10;58.90;;;;;;5108629;28;20131;-56
2022/11/17 01:48:59;;;;;;;4.95;0.77;;;20.10;58.90;;;;;;5107978;28;20054;-54
2022/11/17 01:51:27;;;;;;;3.40;0.40;;;20.10;58.90;;;;;;5104623;28;20067;-55
2022/11/17 01:53:55;;;;;;;4.05;0.52;;;20.10;58.80;;;;;;5087976;28;20044;-54
2022/11/17 01:56:27;;;;;;;9.88;0.50;;;20.10;58.80;;;;;;5087988;28;20075;-55
2022/11/17 01:59:02;;;;;;;5.80;0.30;;;20.10;58.80;;;;;;5087669;28;20052;-53
2022/11/17 02:01:29;;;;;;;3.22;0.32;;;20.20;58.80;;;;;;5087864;28;20044;-56
2022/11/17 02:03:56;;;;;;;2.25;0.95;;;20.10;58.70;;;;;;5087551;28;20046;-55
2022/11/17 02:06:28;;;;;;;5.35;1.02;;;20.10;58.70;;;;;;5087797;28;20393;-55
2022/11/17 02:08:59;;;;;;;3.55;0.30;;;20.10;58.60;;;;;;5087779;28;20102;-54
2022/11/17 02:11:27;;;;;;;3.72;0.20;;;20.20;58.60;;;;;;5087622;28;20056;-55
2022/11/17 02:13:56;;;;;;;2.67;0.40;;;20.10;58.60;;;;;;5087381;28;20051;-50
2022/11/17 02:16:23;;;;;;;4.32;0.73;;;20.10;58.60;;;;;;5087622;28;20787;-54
2022/11/17 02:18:50;;;;;;;6.60;0.20;;;20.10;58.50;;;;;;5087302;28;20483;-53
2022/11/17 02:21:35;;;;;;;3.20;0.20;;;20.10;58.50;;;;;;5087728;28;20850;-53
2022/11/17 02:24:22;;;;;;;3.80;0.20;;;20.10;58.40;;;;;;5087714;28;20040;-56
2022/11/17 02:27:23;;;;;;;2.95;0.20;;;20.20;58.40;;;;;;5080865;28;20182;-55
2022/11/17 02:29:58;;;;;;;2.75;0.30;;;20.10;58.40;;;;;;5067195;28;20040;-55
2022/11/17 02:32:37;;;;;;;3.40;0.10;;;20.10;58.40;;;;;;5067103;28;20041;-56
2022/11/17 02:35:13;;;;;;;7.22;0.43;;;20.10;58.40;;;;;;5072351;28;20048;-55
2022/11/17 02:37:43;;;;;;;;;;;20.10;58.40;;;;;;5087996;28;20043;-56
2022/11/17 02:40:16;;;;;;;3.60;0.40;;;20.00;58.40;;;;;;5087568;28;19924;-55
2022/11/17 02:45:39;;;;;;;5.15;0.10;;;20.00;58.40;;;;;;5089182;28;20040;-56
2022/11/17 02:48:11;;;;;;;2.30;0.20;;;20.10;58.40;;;;;;5090280;28;20589;-55
2022/11/17 02:50:40;;;;;;;2.25;0.68;;;20.10;58.30;;;;;;5091111;28;20044;-55
2022/11/17 02:53:07;;;;;;;1.33;0.20;;;20.00;58.50;;;;;;5090708;28;20046;-55
2022/11/17 02:55:35;;;;;;;0.80;0.10;;;20.10;58.20;;;;;;5090971;28;20273;-54
2022/11/17 02:58:02;;;;;;;1.80;0.22;;;20.10;58.20;;;;;;5090732;28;20044;-54
2022/11/17 03:00:33;;;;;;;0.88;0.20;;;20.10;58.30;;;;;;5090565;28;20082;-55
2022/11/17 03:03:21;;;;;;;8.30;0.52;;;20.10;58.20;;;;;;5090843;28;20048;-58
2022/11/17 03:05:58;;;;;;;1.35;0.43;;;20.10;58.10;;;;;;5090767;28;20037;-56
2022/11/17 03:08:37;;;;;;;3.55;0.10;;;20.10;58.10;;;;;;5091037;28;20048;-56
2022/11/17 03:11:06;;;;;;;2.42;0.10;;;20.10;58.10;;;;;;5090741;28;20123;-54
2022/11/17 03:13:43;;;;;;;2.15;0.10;;;20.10;58.10;;;;;;5090692;28;20070;-55
2022/11/17 03:16:24;;;;;;;1.73;0.20;;;20.10;58.10;;;;;;5089778;28;20123;-52
2022/11/17 03:19:01;;;;;;;3.03;0.85;;;20.10;58.10;;;;;;5090490;28;20044;-54
2022/11/17 03:21:32;;;;;;;4.13;0.68;;;20.10;58.10;;;;;;5090446;28;20594;-53
2022/11/17 03:24:05;;;;;;;1.70;0.30;;;20.10;58.10;;;;;;5090353;28;20048;-57
2022/11/17 03:26:36;;;;;;;2.30;0.20;;;20.10;58.10;;;;;;5090556;28;20051;-55
2022/11/17 03:29:06;;;;;;;2.92;0.20;;;20.10;58.10;;;;;;5090352;28;20075;-56
2022/11/17 03:31:36;;;;;;;3.45;0.55;;;20.10;58.70;;;;;;5089700;28;20177;-55
2022/11/17 03:34:08;;;;;;;3.05;0.10;;;20.10;58.10;;;;;;5090466;28;20036;-56
2022/11/17 03:36:39;;;;;;;3.50;0.70;;;20.10;58.10;;;;;;5090152;28;20055;-55
2022/11/17 03:39:12;;;;;;;3.35;0.10;;;20.10;58.10;;;;;;5082966;28;20530;-53
2022/11/17 03:41:42;;;;;;;0.88;0.00;;;20.10;58.10;;;;;;5074689;28;20113;-55
2022/11/17 03:44:12;;;;;;;2.75;0.90;;;20.10;58.20;;;;;;5048757;28;20525;-55
2022/11/17 03:46:43;;;;;;;0.52;0.32;;;20.10;58.10;;;;;;5050454;28;20044;-55
2022/11/17 03:49:19;;;;;;;3.72;0.10;;;20.10;58.10;;;;;;5076888;28;20575;-55
2022/11/17 03:51:46;;;;;;;2.72;0.32;;;20.10;58.00;;;;;;5083007;28;20131;-56
2022/11/17 03:54:15;;;;;;;0.17;0.00;;;20.10;58.10;;;;;;5069539;28;20040;-55
2022/11/17 03:56:50;;;;;;;0.68;0.03;;;20.10;58.10;;;;;;5068882;28;20076;-56
2022/11/17 03:59:22;;;;;;;1.00;0.03;;;20.10;58.10;;;;;;5069538;28;20060;-56
2022/11/17 04:01:51;;;;;;;0.40;0.03;;;20.00;58.10;;;;;;5069577;28;20102;-54
2022/11/17 04:04:20;;;;;;;0.93;0.40;;;20.10;58.20;;;;;;5069472;28;20044;-55
2022/11/17 04:06:48;;;;;;;2.55;0.10;;;20.10;58.10;;;;;;5069179;28;20049;-54
2022/11/17 04:09:15;;;;;;;3.30;0.15;;;20.10;58.10;;;;;;5069096;28;20043;-56
2022/11/17 04:17:12;;;;;;;0.77;0.10;;;20.00;58.10;;;;;;5069137;28;20131;-53
2022/11/17 04:19:39;;;;;;;0.35;0.08;;;20.00;58.10;;;;;;5069005;28;20040;-53
2022/11/17 04:22:06;;;;;;;2.45;0.52;;;20.00;58.20;;;;;;5068897;28;20882;-55
2022/11/17 04:24:33;;;;;;;1.48;0.10;;;20.00;58.10;;;;;;5068840;28;20067;-52
2022/11/17 04:29:45;;;;;;;0.38;0.00;;;20.00;58.10;;;;;;5069176;28;20531;-53
2022/11/17 04:32:13;;;;;;;2.03;0.10;;;20.00;58.10;;;;;;5068810;28;20408;-55
2022/11/17 04:34:41;;;;;;;0.95;0.10;;;20.00;58.10;;;;;;5068815;28;20505;-55
2022/11/17 04:37:16;;;;;;;8.35;0.00;;;20.00;58.10;;;;;;5068865;28;20047;-56
2022/11/17 04:39:44;;;;;;;0.77;0.10;;;20.00;58.70;;;;;;5068109;28;20123;-55
2022/11/17 04:42:10;;;;;;;1.17;0.00;;;20.00;58.20;;;;;;5067960;28;20036;-55
2022/11/17 04:44:37;;;;;;;4.18;0.00;;;20.00;58.40;;;;;;5087037;28;20059;-56
2022/11/17 04:47:05;;;;;;;0.55;0.10;;;20.00;58.50;;;;;;5088719;28;20043;-58
2022/11/17 04:49:34;;;;;;;0.55;0.00;;;20.00;58.50;;;;;;5088559;28;20405;-57
2022/11/17 04:52:01;;;;;;;0.17;0.10;;;20.00;58.40;;;;;;5085248;28;20517;-55
2022/11/17 04:54:28;;;;;;;2.08;0.00;;;20.00;58.40;;;;;;5087759;28;20051;-55
2022/11/17 04:56:56;;;;;;;1.85;0.10;;;20.00;58.40;;;;;;5088171;28;20047;-56
2022/11/17 04:59:23;;;;;;;2.75;0.90;;;20.00;58.30;;;;;;5088424;28;20048;-55
2022/11/17 05:01:50;;;;;;;0.30;0.00;;;20.00;58.30;;;;;;5088072;28;20539;-57
2022/11/17 05:04:54;;;;;;;0.40;0.00;;;20.00;58.30;;;;;;5088486;28;20048;-52
2022/11/17 05:07:09;;;;;;;1.27;1.02;;;20.00;58.30;;;;;;5079248;28;20040;-56
2022/11/17 05:09:36;;;;;;;1.38;0.10;;;20.00;58.30;;;;;;5082888;28;20040;-56
2022/11/17 05:14:52;;;;;;;0.40;0.10;;;19.90;58.30;;;;;;5088300;28;20123;-56
2022/11/17 05:17:18;;;;;;;2.08;0.10;;;20.00;58.40;;;;;;5073794;28;20036;-56
2022/11/17 05:19:46;;;;;;;1.38;0.00;;;19.90;58.30;;;;;;5080630;28;20067;-56
2022/11/17 05:25:02;;;;;;;1.17;0.03;;;19.90;58.20;;;;;;5081786;28;20040;-57
2022/11/17 05:27:29;;;;;;;1.45;0.20;;;19.90;58.30;;;;;;5069578;28;20445;-57
2022/11/17 05:29:56;;;;;;;4.78;0.10;;;19.90;58.40;;;;;;5087696;28;20124;-57
2022/11/17 05:32:23;;;;;;;3.20;0.00;;;19.90;58.40;;;;;;5087331;28;20043;-57
2022/11/17 05:34:50;;;;;;;2.72;0.00;;;19.90;58.50;;;;;;5089167;28;20054;-56
2022/11/17 05:37:19;;;;;;;0.40;0.00;;;19.90;58.60;;;;;;5087889;28;20570;-55
2022/11/17 05:39:46;;;;;;;0.40;0.00;;;19.90;58.60;;;;;;5066479;28;20040;-57
2022/11/17 05:42:13;;;;;;;1.85;0.00;;;20.00;58.60;;;;;;5068396;28;20514;-56
2022/11/17 05:44:40;;;;;;;5.15;0.10;;;19.90;58.40;;;;;;5087193;28;20064;-54
2022/11/17 05:47:07;;;;;;;0.35;0.00;;;19.90;58.40;;;;;;5089256;28;20036;-54
2022/11/17 05:49:34;;;;;;;0.20;0.00;;;20.00;58.50;;;;;;5088083;28;20044;-56
2022/11/17 05:52:01;;;;;;;6.93;0.95;;;19.90;58.50;;;;;;5088056;28;20042;-56
2022/11/17 05:54:29;;;;;;;0.57;0.00;;;19.90;58.40;;;;;;5086324;28;20040;-55
2022/11/17 05:57:01;;;;;;;0.30;0.00;;;19.90;58.40;;;;;;5087236;28;20123;-56
2022/11/17 05:59:32;;;;;;;2.45;0.10;;;20.00;58.40;;;;;;5086897;28;20135;-57
2022/11/17 06:02:03;;;;;;;1.80;0.77;;;19.90;58.30;;;;;;5086981;28;20067;-56
2022/11/17 06:04:30;;;;;;;1.38;0.15;;;19.90;58.30;;;;;;5087517;28;20504;-55
2022/11/17 06:06:59;;;;;;;1.02;0.10;;;19.90;58.20;;;;;;5083094;28;20059;-58
2022/11/17 06:09:26;;;;;;;0.95;0.13;;;19.90;58.10;;;;;;5089427;28;20055;-55
2022/11/17 06:11:55;;;;;;;2.47;0.10;;;19.90;58.20;;;;;;5085967;28;20036;-51
2022/11/17 06:14:22;;;;;;;4.95;0.98;;;19.90;58.40;;;;;;5089067;28;20040;-54
2022/11/17 06:16:52;;;;;;;2.83;0.20;;;19.90;58.50;;;;;;5087566;28;20497;-63
2022/11/17 06:19:22;;;;;;;5.75;1.10;;;20.00;58.70;;;;;;5100339;28;20083;-52
2022/11/17 06:21:50;;;;;;;3.90;0.10;;;20.00;58.80;;;;;;5091053;28;20040;-48
2022/11/17 06:24:17;;;;;;;4.55;0.30;;;19.90;58.70;;;;;;5090254;28;20681;-53
2022/11/17 06:26:46;;;;;;;11.65;2.20;;;20.00;58.80;;;;;;5090900;28;20051;-49
2022/11/17 06:29:15;;;;;;;1.23;0.10;;;20.00;58.90;;;;;;5082550;28;20539;-48
2022/11/17 06:31:44;;;;;;;4.13;0.30;;;20.10;59.00;;;;;;5102917;28;20032;-47
2022/11/17 06:34:12;;;;;;;2.78;1.15;;;20.10;59.10;;;;;;5090861;28;20055;-48
2022/11/17 06:36:39;;;;;;;5.32;1.05;;;20.20;59.00;;;;;;5090707;28;20043;-47
2022/11/17 06:39:06;;;;;;;2.38;0.20;;;20.30;58.90;;;;;;5090178;28;20052;-46
2022/11/17 06:41:33;;;;;;;2.17;0.38;;;20.30;58.70;;;;;;5090558;28;20077;-45
2022/11/17 06:44:00;;;;;;;4.63;0.22;;;20.40;58.60;;;;;;5090483;28;20086;-47
2022/11/17 06:46:36;;;;;;;1.23;0.10;;;20.50;58.90;;;;;;5090465;28;20143;-47
2022/11/17 06:49:08;;;;;;;2.33;0.20;;;20.60;58.10;;;;;;5090511;28;20059;-59
2022/11/17 06:51:35;;;;;;;3.42;1.38;;;20.60;57.90;;;;;;5071627;28;20036;-59
2022/11/17 06:54:06;;;;;;;3.55;0.20;;;20.70;57.30;;;;;;5084448;28;20047;-56
2022/11/17 06:56:33;;;;;;;4.28;0.17;;;20.80;56.90;;;;;;5087573;28;20046;-57
2022/11/17 06:59:00;;;;;;;1.85;0.35;;;20.90;56.50;;;;;;5089809;28;20722;-58
2022/11/17 07:01:28;;;;;;;4.15;0.50;;;21.00;56.20;;;;;;5089921;28;20561;-60
2022/11/17 07:03:55;;;;;;;0.75;0.10;;;21.00;55.70;;;;;;5090344;28;20039;-57
2022/11/17 07:06:22;;;;;;;2.28;0.25;;;21.10;55.50;;;;;;5090129;28;20075;-48
2022/11/17 07:08:49;;;;;;;1.50;0.10;;;21.10;55.20;;;;;;5080824;28;20063;-55
2022/11/17 07:11:17;;;;;;;2.53;0.28;;;21.20;55.10;;;;;;5089505;28;20139;-44
2022/11/17 07:13:44;;;;;;;2.67;0.50;;;21.20;54.90;;;;;;5082835;28;20040;-45
2022/11/17 07:16:13;;;;;;;8.57;0.47;;;21.20;54.80;;;;;;5085114;28;20117;-45
2022/11/17 07:18:42;;;;;;;1.95;0.30;;;21.20;54.70;;;;;;5088536;28;20038;-54
2022/11/17 07:21:10;;;;;;;6.70;0.73;;;21.30;54.80;;;;;;5089721;28;20056;-49
2022/11/17 07:23:39;;;;;;;3.15;0.15;;;21.30;54.80;;;;;;5085116;28;20040;-46
2022/11/17 07:26:06;;;;;;;6.97;0.57;;;21.40;54.70;;;;;;5071451;28;20536;-48
2022/11/17 07:28:35;;;;;;;3.65;0.43;;;21.40;54.60;;;;;;5087441;28;20040;-47
2022/11/17 07:31:03;;;;;;;6.22;0.45;;;21.40;54.60;;;;;;5089214;28;20050;-45
2022/11/17 07:33:30;;;;;;;6.45;1.05;;;21.40;54.50;;;;;;5073214;28;20082;-47
2022/11/17 07:36:04;;;;;;;2.45;0.30;;;21.40;54.50;;;;;;5089426;28;20082;-45
2022/11/17 07:38:33;;;;;;;2.35;0.60;;;21.40;54.50;;;;;;5089759;28;20048;-48
2022/11/17 07:41:00;;;;;;;3.90;0.47;;;21.50;54.60;;;;;;5082514;28;20044;-50
2022/11/17 07:43:28;;;;;;;3.22;0.30;;;21.50;54.50;;;;;;5089305;28;20486;-52
2022/11/17 07:45:55;;;;;;;0.82;0.15;;;21.60;54.50;;;;;;5089634;28;20131;-52
2022/11/17 07:48:22;;;;;;;4.03;0.85;;;21.60;54.50;;;;;;5089201;28;20140;-51
2022/11/17 07:50:49;;;;;;;1.35;0.50;;;21.70;54.40;;;;;;5089113;28;20123;-48
2022/11/17 07:53:17;;;;;;;6.00;0.82;;;21.70;54.20;;;;;;5089259;28;21063;-48
2022/11/17 07:55:44;;;;;;;1.10;0.55;;;21.80;54.10;;;;;;5091943;28;20040;-48
2022/11/17 07:58:12;;;;;;;4.47;0.75;;;21.90;53.90;;;;;;5096163;28;20048;-47
2022/11/17 08:00:39;;;;;;;1.65;0.10;;;21.90;53.80;;;;;;5089298;28;20117;-52
2022/11/17 08:03:06;;;;;;;3.05;0.47;;;21.90;53.70;;;;;;5089073;28;20810;-48
2022/11/17 08:05:35;;;;;;;2.85;0.28;;;22.00;53.50;;;;;;5088348;28;20460;-46
2022/11/17 08:08:02;;;;;;;4.50;0.73;;;22.00;53.30;;;;;;5088904;28;20152;-45
2022/11/17 08:10:31;;;;;;;2.58;0.22;;;22.10;53.20;;;;;;5088299;28;20500;-45
2022/11/17 08:12:59;;;;;;;1.42;0.35;;;22.20;53.10;;;;;;5088789;28;20048;-46
2022/11/17 08:15:26;;;;;;;1.60;0.50;;;22.20;53.00;;;;;;5088873;28;20075;-49
2022/11/17 08:17:55;;;;;;;2.33;0.30;;;22.20;52.80;;;;;;5089029;28;20049;-47
2022/11/17 08:20:23;;;;;;;4.22;0.20;;;22.30;52.50;;;;;;5088399;28;20048;-46
2022/11/17 08:22:51;;;;;;;1.33;0.30;;;22.30;52.60;;;;;;5088580;28;20581;-44
2022/11/17 08:25:18;;;;;;;2.33;0.22;;;22.30;52.50;;;;;;5088534;28;20072;-49
2022/11/17 08:27:50;;;;;;;1.15;0.40;;;22.40;52.40;;;;;;5088500;28;20041;-54
2022/11/17 08:30:18;;;;;;;1.92;0.57;;;22.40;52.30;;;;;;5088664;28;20542;-51
2022/11/17 08:32:48;;;;;;;1.02;0.15;;;22.50;52.20;;;;;;5088615;28;20040;-50
2022/11/17 08:35:16;;;;;;;4.30;0.38;;;22.50;51.90;;;;;;5088476;28;20048;-52
2022/11/17 08:37:43;;;;;;;5.95;0.40;;;22.50;51.70;;;;;;5078486;28;20044;-52
2022/11/17 08:40:11;;;;;;;2.53;0.35;;;22.50;51.50;;;;;;5082963;28;20128;-50
2022/11/17 08:42:38;;;;;;;2.97;0.20;;;22.50;51.30;;;;;;5078369;28;20036;-51
2022/11/17 08:45:08;;;;;;;1.80;0.77;;;22.50;51.20;;;;;;5081697;28;20130;-54
2022/11/17 08:47:36;;;;;;;2.10;0.20;;;22.60;51.10;;;;;;5088487;28;20040;-51
2022/11/17 08:50:04;;;;;;;0.50;0.10;;;22.50;51.70;;;;;;5088146;28;20052;-55
2022/11/17 08:52:31;;;;;;;2.58;0.43;;;22.50;51.00;;;;;;5088050;28;20036;-54
2022/11/17 08:54:58;;;;;;;3.25;0.30;;;22.50;51.00;;;;;;5076390;28;20081;-56
2022/11/17 08:57:25;;;;;;;0.88;0.55;;;22.50;51.10;;;;;;5087442;28;20135;-51
2022/11/17 08:59:52;;;;;;;2.67;0.13;;;22.50;51.00;;;;;;5088223;28;20036;-49
2022/11/17 09:02:20;;;;;;;2.97;0.45;;;22.50;51.10;;;;;;5087857;28;20094;-58
2022/11/17 09:04:47;;;;;;;1.20;0.30;;;22.40;51.00;;;;;;5087832;28;20551;-52
2022/11/17 09:07:14;;;;;;;2.30;0.55;;;22.40;50.90;;;;;;5087658;28;20089;-57
2022/11/17 09:09:41;;;;;;;4.60;0.60;;;22.40;51.00;;;;;;5087566;28;20040;-55
2022/11/17 09:12:08;;;;;;;1.85;0.10;;;22.40;51.00;;;;;;5083371;28;20688;-51
2022/11/17 09:14:36;;;;;;;3.92;0.52;;;22.40;51.00;;;;;;5076766;28;20032;-45
2022/11/17 09:17:04;;;;;;;3.38;0.50;;;22.30;51.00;;;;;;5060862;28;20120;-52
2022/11/17 09:19:33;;;;;;;2.30;0.70;;;22.30;51.00;;;;;;5086603;28;20036;-47
2022/11/17 09:22:00;;;;;;;1.73;0.35;;;22.30;51.10;;;;;;5049440;28;20044;-48
2022/11/17 09:24:27;;;;;;;2.97;0.30;;;22.30;51.20;;;;;;5077069;28;20090;-57
2022/11/17 09:26:56;;;;;;;2.10;0.22;;;22.30;51.30;;;;;;5082742;28;20064;-59
2022/11/17 09:29:23;;;;;;;2.55;0.43;;;22.20;51.20;;;;;;5087709;28;20059;-59
2022/11/17 09:31:50;;;;;;;2.15;0.10;;;22.20;51.20;;;;;;5087669;28;20382;-57
2022/11/17 09:34:17;;;;;;;2.75;0.20;;;22.20;51.20;;;;;;5087312;28;20040;-59
2022/11/17 09:36:47;;;;;;;2.05;0.10;;;22.10;51.30;;;;;;5087413;28;20508;-60
2022/11/17 09:39:15;;;;;;;3.92;0.73;;;22.20;51.40;;;;;;5087684;28;20047;-59
2022/11/17 09:41:44;;;;;;;0.88;0.15;;;22.20;51.40;;;;;;5085134;28;20036;-61
2022/11/17 09:44:38;;;;;;;0.50;0.20;;;22.20;51.50;;;;;;5076032;28;20125;-55
2022/11/17 09:47:19;;;;;;;0.98;0.40;;;22.20;51.50;;;;;;5087259;28;20151;-61
2022/11/17 09:49:53;;;;;;;1.70;0.25;;;22.10;51.60;;;;;;5087579;28;20050;-55
2022/11/17 09:52:25;;;;;;;1.95;0.20;;;22.10;51.80;;;;;;5087490;28;20218;-55
2022/11/17 09:54:56;;;;;;;2.50;0.30;;;22.10;51.90;;;;;;5088054;28;20044;-53
2022/11/17 09:57:30;;;;;;;1.27;0.10;;;22.10;51.90;;;;;;5091115;28;20044;-51
2022/11/17 10:00:04;;;;;;;2.88;0.10;;;22.10;52.10;;;;;;5091265;28;20109;-54
2022/11/17 10:02:32;;;;;;;2.25;0.73;;;22.10;52.20;;;;;;5090917;28;20149;-47
2022/11/17 10:04:59;;;;;;;1.35;0.10;;;22.10;52.30;;;;;;5091504;28;20244;-48
2022/11/17 10:07:30;;;;;;;1.00;0.22;;;22.10;52.30;;;;;;5091096;28;20169;-46
2022/11/17 10:10:00;;;;;;;2.85;0.35;;;22.10;52.30;;;;;;5091063;28;20512;-50
2022/11/17 10:12:33;;;;;;;2.25;0.35;;;22.20;52.40;;;;;;5096293;28;20086;-49
2022/11/17 10:15:20;;;;;;;2.33;0.10;;;22.20;52.30;;;;;;5073009;28;20046;-55
2022/11/17 10:17:47;;;;;;;0.77;0.20;;;22.20;52.30;;;;;;5076897;28;20048;-62
2022/11/17 10:20:16;;;;;;;2.13;0.50;;;22.20;52.30;;;;;;5091111;28;20046;-59
2022/11/17 10:22:46;;;;;;;2.80;0.20;;;22.20;52.40;;;;;;5091111;28;20455;-54
2022/11/17 10:25:35;;;;;;;3.30;0.10;;;22.20;52.40;;;;;;5084184;28;20072;-51
2022/11/17 10:28:03;;;;;;;3.22;0.15;;;22.30;52.50;;;;;;5091074;28;20051;-54
2022/11/17 10:30:30;;;;;;;1.58;0.95;;;22.30;52.50;;;;;;5090804;28;20055;-53
2022/11/17 10:32:59;;;;;;;2.60;0.30;;;22.30;52.50;;;;;;5058577;28;20040;-50
2022/11/17 10:35:29;;;;;;;0.63;0.10;;;22.30;52.40;;;;;;5072167;28;20146;-48
2022/11/17 10:38:00;;;;;;;1.65;0.22;;;22.40;52.40;;;;;;5091061;28;20040;-54
2022/11/17 10:40:30;;;;;;;2.20;0.10;;;22.40;52.40;;;;;;5090680;28;20046;-60
2022/11/17 10:43:16;;;;;;;0.65;0.20;;;22.40;52.30;;;;;;5091263;28;20062;-50
2022/11/17 10:45:45;;;;;;;1.65;0.75;;;22.40;52.30;;;;;;5070282;28;20023;-48
2022/11/17 10:48:24;;;;;;;2.58;0.17;;;22.40;52.30;;;;;;5095680;28;20519;-53
2022/11/17 10:50:53;;;;;;;2.65;0.20;;;22.50;52.40;;;;;;5105177;28;20067;-51
2022/11/17 10:53:26;;;;;;;2.28;0.10;;;22.60;52.50;;;;;;5110806;28;20039;-54
2022/11/17 10:55:56;;;;;;;2.25;0.10;;;22.70;52.30;;;;;;5111101;28;20078;-52
2022/11/17 10:58:26;;;;;;;22.83;1.25;;;22.70;52.10;;;;;;5109698;28;20126;-55
2022/11/17 11:00:55;;;;;;;1.10;0.20;;;22.80;51.90;;;;;;5102989;28;20046;-54
2022/11/17 11:03:23;;;;;;;3.95;0.45;;;22.90;51.80;;;;;;5105529;28;20071;-57
2022/11/17 11:05:59;;;;;;;1.05;0.10;;;22.90;51.80;;;;;;5109028;28;20035;-55
2022/11/17 11:08:29;;;;;;;;;;;22.90;51.60;;;;;;5108137;28;20089;-58
2022/11/17 11:10:58;;;;;;;1.15;0.10;;;22.80;51.60;;;;;;5110681;28;19924;-57
2022/11/17 11:13:32;;;;;;;3.60;0.20;;;22.70;51.40;;;;;;5110168;28;20480;-57
2022/11/17 11:15:59;;;;;;;2.72;0.38;;;22.70;51.20;;;;;;5092172;28;20487;-57
2022/11/17 11:18:28;;;;;;;2.35;0.20;;;22.70;51.80;;;;;;5110671;28;20042;-58
2022/11/17 11:21:10;;;;;;;4.25;0.73;;;22.70;51.10;;;;;;5110629;28;20050;-57
2022/11/17 11:23:46;;;;;;;1.98;0.45;;;22.70;51.00;;;;;;5110855;28;20043;-58
2022/11/17 11:26:29;;;;;;;1.95;0.17;;;22.60;50.70;;;;;;5110434;28;20445;-58
2022/11/17 11:29:05;;;;;;;0.30;0.10;;;22.50;50.60;;;;;;5110487;28;20043;-58
2022/11/17 11:31:43;;;;;;;3.03;0.20;;;22.50;50.50;;;;;;5110451;28;20039;-58
2022/11/17 11:34:28;;;;;;;5.80;1.80;;;22.40;50.50;;;;;;5110818;28;20676;-55
2022/11/17 11:36:59;;;;;;;8.13;0.50;;;22.40;50.60;;;;;;5110519;28;20475;-57
2022/11/17 11:39:38;;;;;;;1.48;0.20;;;22.30;50.60;;;;;;5110455;28;20112;-58
2022/11/17 11:42:36;;;;;;;3.22;0.20;;;22.30;50.50;;;;;;5110037;28;20081;-57
2022/11/17 11:45:24;;;;;;;3.33;0.10;;;22.30;50.90;;;;;;5110302;28;20122;-56
2022/11/17 11:48:06;;;;;;;2.83;0.30;;;22.20;51.20;;;;;;5110324;28;20809;-56
2022/11/17 11:50:35;;;;;;;3.92;0.10;;;22.20;51.20;;;;;;5110211;28;20075;-55
2022/11/17 11:53:07;;;;;;;1.55;0.57;;;22.30;51.20;;;;;;5120848;27;20507;-57
2022/11/17 11:55:37;;;;;;;1.92;0.20;;;22.30;51.10;;;;;;5130456;27;20598;-58
2022/11/17 11:58:12;;;;;;;1.83;0.10;;;22.40;51.00;;;;;;5130360;27;20085;-57
2022/11/17 12:00:41;;;;;;;1.00;0.30;;;22.50;50.80;;;;;;5130557;27;20166;-56
2022/11/17 12:03:19;;;;;;;3.03;0.30;;;22.60;50.80;;;;;;5130652;27;20039;-57
2022/11/17 12:05:58;;;;;;;2.20;0.65;;;22.60;50.70;;;;;;5130686;27;20055;-57
2022/11/17 12:08:32;;;;;;;1.67;0.00;;;22.70;50.40;;;;;;5097678;28;20138;-56
2022/11/17 12:11:59;;;;;;;1.23;0.32;;;22.70;50.90;;;;;;5109270;28;20052;-56
2022/11/17 12:13:52;;;;;;;1.95;0.10;;;22.70;50.90;;;;;;5109807;28;20038;-57
2022/11/17 12:16:28;;;;;;;4.05;0.52;;;22.80;51.00;;;;;;5091595;28;20423;-58
2022/11/17 12:18:55;;;;;;;2.05;0.17;;;22.80;51.00;;;;;;5108955;28;20067;-59
2022/11/17 12:21:23;;;;;;;1.67;0.30;;;22.90;51.10;;;;;;5109469;28;20043;-57
2022/11/17 12:24:16;;;;;;;0.32;0.10;;;22.90;50.90;;;;;;5091325;28;20558;-55
2022/11/17 12:26:44;;;;;;;0.63;0.10;;;23.00;50.80;;;;;;5109030;28;20492;-58
2022/11/17 12:29:30;;;;;;;0.93;0.10;;;22.90;50.60;;;;;;5109398;28;20048;-57
2022/11/17 12:31:59;;;;;;;1.48;0.10;;;23.00;50.40;;;;;;5108952;28;20054;-57
2022/11/17 12:34:29;;;;;;;3.30;0.15;;;22.90;50.20;;;;;;5109425;28;20054;-56
2022/11/17 12:37:18;;;;;;;1.95;0.10;;;22.90;50.00;;;;;;5109508;28;20049;-57
2022/11/17 12:40:13;;;;;;;1.85;0.10;;;23.00;50.00;;;;;;5109384;28;20043;-53
2022/11/17 12:43:21;;;;;;;0.82;0.20;;;23.00;49.70;;;;;;5108954;28;20040;-55
2022/11/17 12:46:11;;;;;;;1.80;0.10;;;22.90;49.50;;;;;;5109375;28;20039;-56
2022/11/17 12:48:40;;;;;;;2.72;0.47;;;22.90;49.20;;;;;;5108982;28;20123;-53
2022/11/17 12:51:11;;;;;;;2.05;0.10;;;22.90;49.20;;;;;;5108960;28;20233;-52
2022/11/17 12:54:14;;;;;;;1.00;0.10;;;22.80;49.00;;;;;;5108977;28;20137;-56
2022/11/17 12:56:55;;;;;;;1.13;0.22;;;22.80;48.90;;;;;;5105721;28;20131;-57
2022/11/17 13:00:04;;;;;;;0.52;0.10;;;22.70;48.90;;;;;;5088525;28;20515;-57
2022/11/17 13:03:09;;;;;;;5.05;0.10;;;22.80;48.70;;;;;;5091368;28;20077;-53
2022/11/17 13:05:37;;;;;;;3.95;0.10;;;22.70;49.00;;;;;;5088157;28;20036;-51
2022/11/17 13:08:21;;;;;;;3.58;0.10;;;22.70;49.10;;;;;;5103353;28;20047;-50
2022/11/17 13:10:48;;;;;;;2.20;0.20;;;22.70;49.00;;;;;;5098874;28;20139;-55
2022/11/17 13:13:18;;;;;;;4.47;0.10;;;22.60;49.10;;;;;;5104280;28;20046;-54
2022/11/17 13:15:51;;;;;;;2.47;0.30;;;22.70;49.30;;;;;;5100019;28;20500;-48
2022/11/17 13:18:30;;;;;;;1.88;0.10;;;22.70;49.30;;;;;;5105892;28;20106;-50
2022/11/17 13:20:57;;;;;;;1.27;0.30;;;22.70;49.40;;;;;;5107504;28;20062;-50
2022/11/17 13:23:27;;;;;;;0.68;0.00;;;22.70;49.50;;;;;;5107654;28;20032;-47
2022/11/17 13:26:09;;;;;;;0.43;0.00;;;22.60;49.60;;;;;;5107125;28;20047;-51
2022/11/17 13:28:36;;;;;;;0.38;0.00;;;22.70;49.90;;;;;;5107028;28;20716;-48
2022/11/17 13:31:05;;;;;;;8.05;1.17;;;22.70;49.90;;;;;;5104925;28;20598;-49
2022/11/17 13:33:32;;;;;;;2.05;0.00;;;22.70;49.80;;;;;;5107459;28;20040;-49